createdAt,value
2018-09-05T00:01:59.446Z,96.66
2018-09-05T00:04:29.526Z,96.61
2018-09-05T00:06:59.636Z,97.15
2018-09-05T00:09:29.925Z,97.39
2018-09-05T00:12:00.020Z,97.36
2018-09-05T00:14:30.133Z,97.11
2018-09-05T00:17:00.256Z,96.68
2018-09-05T00:19:30.437Z,97.04
2018-09-05T00:22:00.495Z,97.19
2018-09-05T00:24:30.646Z,96.96
2018-09-05T00:27:00.796Z,97.30
2018-09-05T00:29:30.983Z,97.18
2018-09-05T00:32:01.139Z,97.49
2018-09-05T00:34:31.299Z,97.57
2018-09-05T00:37:01.458Z,98.25
2018-09-05T00:39:31.619Z,98.57
2018-09-05T00:42:01.810Z,98.22
2018-09-05T00:44:31.935Z,97.93
2018-09-05T00:47:02.035Z,97.15
2018-09-05T00:49:32.330Z,97.13
2018-09-05T00:52:02.472Z,96.90
2018-09-05T00:54:32.640Z,96.93
2018-09-05T00:57:02.745Z,96.39
2018-09-05T00:59:32.949Z,96.46
2018-09-05T01:02:03.098Z,96.51
2018-09-05T01:04:33.229Z,96.26
2018-09-05T01:07:18.739Z,96.07
2018-09-05T01:09:48.917Z,95.51
2018-09-05T01:12:20.204Z,95.82
2018-09-05T01:14:51.483Z,95.60
2018-09-05T01:17:21.891Z,95.03
2018-09-05T01:19:52.077Z,94.91
2018-09-05T01:22:22.163Z,94.73
2018-09-05T01:24:52.311Z,95.07
2018-09-05T01:27:22.438Z,95.33
2018-09-05T01:29:52.542Z,94.93
2018-09-05T01:32:22.623Z,94.96
2018-09-05T01:34:52.812Z,95.48
2018-09-05T01:37:22.904Z,94.98
2018-09-05T01:39:53.818Z,94.60
2018-09-05T01:42:23.921Z,95.22
2018-09-05T01:44:54.011Z,95.69
2018-09-05T01:47:24.144Z,95.49
2018-09-05T01:49:54.304Z,95.88
2018-09-05T01:52:24.390Z,96.33
2018-09-05T01:54:54.518Z,96.20
2018-09-05T01:57:24.616Z,96.53
2018-09-05T01:59:54.788Z,96.32
2018-09-05T02:02:25.995Z,96.60
2018-09-05T02:04:56.664Z,96.88
2018-09-05T02:07:26.906Z,96.19
2018-09-05T02:09:57.080Z,96.02
2018-09-05T02:12:27.200Z,96.02
2018-09-05T02:14:57.407Z,95.80
2018-09-05T02:17:27.538Z,95.86
2018-09-05T02:19:58.018Z,96.22
2018-09-05T02:22:28.196Z,96.24
2018-09-05T02:24:58.330Z,96.07
2018-09-05T02:27:28.470Z,95.79
2018-09-05T02:29:58.755Z,95.71
2018-09-05T02:32:28.867Z,95.72
2018-09-05T02:34:59.037Z,96.19
2018-09-05T02:37:29.146Z,96.14
2018-09-05T02:39:59.277Z,96.04
2018-09-05T02:42:29.393Z,96.37
2018-09-05T02:44:59.550Z,96.56
2018-09-05T02:47:29.678Z,96.51
2018-09-05T02:49:59.828Z,96.47
2018-09-05T02:52:30.079Z,96.56
2018-09-05T02:55:00.214Z,97.19
2018-09-05T02:57:30.351Z,97.19
2018-09-05T03:00:00.601Z,97.15
2018-09-05T03:02:30.741Z,97.74
2018-09-05T03:05:00.888Z,98.06
2018-09-05T03:07:31.005Z,98.10
2018-09-05T03:10:01.173Z,98.35
2018-09-05T03:12:31.260Z,97.19
2018-09-05T03:15:01.370Z,97.50
2018-09-05T03:17:31.569Z,97.59
2018-09-05T03:20:01.741Z,97.53
2018-09-05T03:22:31.809Z,97.83
2018-09-05T03:25:01.892Z,98.45
2018-09-05T03:27:32.012Z,98.15
2018-09-05T03:30:02.115Z,98.81
2018-09-05T03:32:32.281Z,98.25
2018-09-05T03:35:02.410Z,98.54
2018-09-05T03:37:32.474Z,98.46
2018-09-05T03:40:02.598Z,98.63
2018-09-05T03:42:32.717Z,98.68
2018-09-05T03:45:02.884Z,98.69
2018-09-05T03:47:33.020Z,98.85
2018-09-05T03:50:03.191Z,98.58
2018-09-05T03:52:33.257Z,98.53
2018-09-05T03:55:03.384Z,99.34
2018-09-05T03:57:33.497Z,99.82
2018-09-05T04:00:03.800Z,100.00
2018-09-05T04:02:33.926Z,100.00
2018-09-05T04:05:04.191Z,100.00
2018-09-05T04:07:34.388Z,100.00
2018-09-05T04:10:04.692Z,100.00
2018-09-05T04:12:38.762Z,100.00
2018-09-05T04:15:09.483Z,100.00
2018-09-05T04:17:39.835Z,100.00
2018-09-05T04:20:10.567Z,100.00
2018-09-05T04:22:40.637Z,100.00
2018-09-05T04:25:10.758Z,100.00
2018-09-05T04:27:40.926Z,100.00
2018-09-05T04:30:11.105Z,100.00
2018-09-05T04:32:41.204Z,100.00
2018-09-05T04:35:11.377Z,100.00
2018-09-05T04:37:41.423Z,100.00
2018-09-05T04:40:11.576Z,100.00
2018-09-05T04:42:41.774Z,100.00
2018-09-05T04:45:11.923Z,100.00
2018-09-05T04:47:41.997Z,100.00
2018-09-05T04:50:12.320Z,100.00
2018-09-05T04:52:42.563Z,100.00
2018-09-05T04:55:12.686Z,100.00
2018-09-05T04:57:42.872Z,100.00
2018-09-05T05:00:13.048Z,100.00
2018-09-05T05:02:43.176Z,100.00
2018-09-05T05:05:13.332Z,100.00
2018-09-05T05:07:43.410Z,100.00
2018-09-05T05:10:13.516Z,100.00
2018-09-05T05:12:43.618Z,100.00
2018-09-05T05:15:13.751Z,100.00
2018-09-05T05:17:43.854Z,100.00
2018-09-05T05:20:13.984Z,100.00
2018-09-05T05:22:44.049Z,100.00
2018-09-05T05:25:14.169Z,100.00
2018-09-05T05:27:44.286Z,100.00
2018-09-05T05:30:14.446Z,100.00
2018-09-05T05:32:44.652Z,100.00
2018-09-05T05:35:14.746Z,100.00
2018-09-05T05:37:44.845Z,99.50
2018-09-05T05:40:14.968Z,98.05
2018-09-05T05:42:45.081Z,96.26
2018-09-05T05:45:15.235Z,96.68
2018-09-05T05:47:45.331Z,95.78
2018-09-05T05:50:15.508Z,93.96
2018-09-05T05:52:45.586Z,91.96
2018-09-05T05:55:15.730Z,91.50
2018-09-05T05:57:45.815Z,90.72
2018-09-05T06:00:16.029Z,90.38
2018-09-05T06:02:46.186Z,89.70
2018-09-05T06:05:16.375Z,89.28
2018-09-05T06:07:46.518Z,88.09
2018-09-05T06:10:16.699Z,88.76
2018-09-05T06:12:49.939Z,88.42
2018-09-05T06:15:20.127Z,88.23
2018-09-05T06:17:50.224Z,88.22
2018-09-05T06:20:20.392Z,87.85
2018-09-05T06:22:50.525Z,87.22
2018-09-05T06:25:20.634Z,86.98
2018-09-05T06:27:50.751Z,88.03
2018-09-05T06:30:20.941Z,87.00
2018-09-05T06:32:51.100Z,86.29
2018-09-05T06:35:21.235Z,85.65
2018-09-05T06:37:51.304Z,84.81
2018-09-05T06:40:21.433Z,84.63
2018-09-05T06:42:51.570Z,84.22
2018-09-05T06:45:21.848Z,84.50
2018-09-05T06:47:51.939Z,82.37
2018-09-05T06:50:22.118Z,79.87
2018-09-05T06:52:52.186Z,74.66
2018-09-05T06:55:22.361Z,71.80
2018-09-05T06:57:52.527Z,72.38
2018-09-05T07:00:22.738Z,72.56
2018-09-05T07:02:52.939Z,71.68
2018-09-05T07:05:23.178Z,69.05
2018-09-05T07:07:53.353Z,67.65
2018-09-05T07:10:23.486Z,64.18
2018-09-05T07:12:53.543Z,62.35
2018-09-05T07:15:23.676Z,63.92
2018-09-05T07:17:54.543Z,63.71
2018-09-05T07:20:24.715Z,66.34
2018-09-05T07:22:54.840Z,67.01
2018-09-05T07:25:24.970Z,68.82
2018-09-05T07:27:55.018Z,70.60
2018-09-05T07:30:25.260Z,70.01
2018-09-05T07:32:55.390Z,70.75
2018-09-05T07:35:25.668Z,70.00
2018-09-05T07:37:55.786Z,72.30
2018-09-05T07:40:25.933Z,73.21
2018-09-05T07:42:56.069Z,73.76
2018-09-05T07:45:26.300Z,73.88
2018-09-05T07:47:58.164Z,75.43
2018-09-05T07:50:28.360Z,74.95
2018-09-05T07:52:58.520Z,74.02
2018-09-05T07:55:31.816Z,72.30
2018-09-05T07:58:02.019Z,73.77
2018-09-05T08:00:32.145Z,72.73
2018-09-05T08:03:02.417Z,72.51
2018-09-05T08:05:32.616Z,72.04
2018-09-05T08:08:02.860Z,70.61
2018-09-05T08:10:32.945Z,69.03
2018-09-05T08:13:03.285Z,66.51
2018-09-05T08:15:33.479Z,64.80
2018-09-05T08:18:03.715Z,60.82
2018-09-05T08:20:33.907Z,57.53
2018-09-05T08:23:04.023Z,58.89
2018-09-05T08:25:34.164Z,58.34
2018-09-05T08:28:04.408Z,57.35
2018-09-05T08:30:34.561Z,52.32
2018-09-05T08:33:04.686Z,51.01
2018-09-05T08:35:34.986Z,49.87
2018-09-05T08:38:05.426Z,52.44
2018-09-05T08:40:35.617Z,53.99
2018-09-05T08:43:05.758Z,53.49
2018-09-05T08:45:36.129Z,52.72
2018-09-05T08:48:06.209Z,51.74
2018-09-05T08:50:36.381Z,47.70
2018-09-05T08:53:06.519Z,47.06
2018-09-05T08:55:36.736Z,44.42
2018-09-05T08:58:06.943Z,44.91
2018-09-05T09:00:37.172Z,43.47
2018-09-05T09:03:07.463Z,44.82
2018-09-05T09:05:37.647Z,45.83
2018-09-05T09:08:07.822Z,43.70
2018-09-05T09:10:38.009Z,44.52
2018-09-05T09:13:08.170Z,46.90
2018-09-05T09:15:38.314Z,47.15
2018-09-05T09:18:08.491Z,48.15
2018-09-05T09:20:38.633Z,47.55
2018-09-05T09:23:08.745Z,47.29
2018-09-05T09:25:38.900Z,48.50
2018-09-05T09:28:09.061Z,48.40
2018-09-05T09:30:39.253Z,48.92
2018-09-05T09:33:10.050Z,48.85
2018-09-05T09:35:40.350Z,47.98
2018-09-05T09:38:10.443Z,48.80
2018-09-05T09:40:40.576Z,47.53
2018-09-05T09:43:10.676Z,44.40
2018-09-05T09:45:40.889Z,44.45
2018-09-05T09:48:11.057Z,43.53
2018-09-05T09:50:41.240Z,44.77
2018-09-05T09:53:11.416Z,42.62
2018-09-05T09:55:41.557Z,42.49
2018-09-05T09:58:11.729Z,43.09
2018-09-05T10:00:46.854Z,43.14
2018-09-05T10:03:22.091Z,43.45
2018-09-05T10:05:57.173Z,44.39
2018-09-05T10:08:33.847Z,42.52
2018-09-05T10:11:09.149Z,41.91
2018-09-05T10:13:44.417Z,43.05
2018-09-05T10:16:19.545Z,43.34
2018-09-05T10:18:51.822Z,42.94
2018-09-05T10:21:22.194Z,42.37
2018-09-05T10:23:52.398Z,43.12
2018-09-05T10:26:22.592Z,45.01
2018-09-05T10:28:52.666Z,43.17
2018-09-05T10:31:22.853Z,44.23
2018-09-05T10:33:52.951Z,42.72
2018-09-05T10:36:23.107Z,43.81
2018-09-05T10:38:53.185Z,42.40
2018-09-05T10:41:23.317Z,43.17
2018-09-05T10:43:53.473Z,43.16
2018-09-05T10:46:23.579Z,42.15
2018-09-05T10:48:53.665Z,41.84
2018-09-05T10:51:27.799Z,43.06
2018-09-05T10:53:57.896Z,44.82
2018-09-05T10:56:28.019Z,44.16
2018-09-05T10:58:58.163Z,44.26
2018-09-05T11:01:28.431Z,43.56
2018-09-05T11:03:58.727Z,43.79
2018-09-05T11:06:28.839Z,44.73
2018-09-05T11:08:58.929Z,45.55
2018-09-05T11:11:29.150Z,46.13
2018-09-05T11:13:59.388Z,43.56
2018-09-05T11:16:29.617Z,43.74
2018-09-05T11:18:59.704Z,45.11
2018-09-05T11:21:29.908Z,44.92
2018-09-05T11:24:00.004Z,44.19
2018-09-05T11:26:30.192Z,44.71
2018-09-05T11:29:00.736Z,43.86
2018-09-05T11:31:30.879Z,43.55
2018-09-05T11:34:01.011Z,43.77
2018-09-05T11:36:31.137Z,44.27
2018-09-05T11:39:01.314Z,43.75
2018-09-05T11:41:31.445Z,45.12
2018-09-05T11:44:01.582Z,43.60
2018-09-05T11:46:31.740Z,44.34
2018-09-05T11:49:01.828Z,45.53
2018-09-05T11:51:32.040Z,44.97
2018-09-05T11:54:02.156Z,44.20
2018-09-05T11:56:32.276Z,42.90
2018-09-05T11:59:02.418Z,43.25
2018-09-05T12:01:32.564Z,44.76
2018-09-05T12:04:02.682Z,44.75
2018-09-05T12:06:32.822Z,40.92
2018-09-05T12:09:03.123Z,43.01
2018-09-05T12:11:33.303Z,43.00
2018-09-05T12:14:03.343Z,43.74
2018-09-05T12:16:35.334Z,43.85
2018-09-05T12:19:06.287Z,43.54
2018-09-05T12:21:36.656Z,43.86
2018-09-05T12:24:07.002Z,43.21
2018-09-05T12:26:39.659Z,44.02
2018-09-05T12:29:11.865Z,42.46
2018-09-05T12:31:42.726Z,42.50
2018-09-05T12:34:13.832Z,41.80
2018-09-05T12:36:43.956Z,40.95
2018-09-05T12:39:15.096Z,39.72
2018-09-05T12:41:45.253Z,41.63
2018-09-05T12:44:15.355Z,42.11
2018-09-05T12:46:45.645Z,41.20
2018-09-05T12:49:15.738Z,41.50
2018-09-05T12:51:45.978Z,39.85
2018-09-05T12:54:16.123Z,39.18
2018-09-05T12:56:46.283Z,40.25
2018-09-05T12:59:16.464Z,40.10
2018-09-05T13:01:46.555Z,41.00
2018-09-05T13:04:16.656Z,41.83
2018-09-05T13:06:46.815Z,41.96
2018-09-05T13:09:17.012Z,41.18
2018-09-05T13:11:47.283Z,41.54
2018-09-05T13:14:17.403Z,40.07
2018-09-05T13:16:47.650Z,39.12
2018-09-05T13:19:17.724Z,39.24
2018-09-05T13:21:47.841Z,40.98
2018-09-05T13:24:18.101Z,39.16
2018-09-05T13:26:48.303Z,40.31
2018-09-05T13:29:18.371Z,39.29
2018-09-05T13:31:48.596Z,37.97
2018-09-05T13:34:25.654Z,38.59
2018-09-05T13:36:55.936Z,39.95
2018-09-05T13:39:26.366Z,39.42
2018-09-05T13:41:56.536Z,38.94
2018-09-05T13:44:26.609Z,39.07
2018-09-05T13:46:56.763Z,39.92
2018-09-05T13:49:26.902Z,39.56
2018-09-05T13:52:02.064Z,40.72
2018-09-05T13:54:32.853Z,39.98
2018-09-05T13:57:03.079Z,41.27
2018-09-05T13:59:33.601Z,40.63
2018-09-05T14:02:03.753Z,41.88
2018-09-05T14:04:33.901Z,40.24
2018-09-05T14:07:03.997Z,40.39
2018-09-05T14:09:34.116Z,38.11
2018-09-05T14:12:04.317Z,39.13
2018-09-05T14:14:34.352Z,38.60
2018-09-05T14:17:04.632Z,37.32
2018-09-05T14:19:34.680Z,36.58
2018-09-05T14:22:04.957Z,36.67
2018-09-05T14:24:35.114Z,38.16
2018-09-05T14:27:05.413Z,37.25
2018-09-05T14:29:35.526Z,35.26
2018-09-05T14:32:05.673Z,33.32
2018-09-05T14:34:35.800Z,34.29
2018-09-05T14:37:05.955Z,35.78
2018-09-05T14:39:36.063Z,35.27
2018-09-05T14:42:06.200Z,36.36
2018-09-05T14:44:36.352Z,35.83
2018-09-05T14:47:06.482Z,36.33
2018-09-05T14:49:36.589Z,35.82
2018-09-05T14:52:06.721Z,34.90
2018-09-05T14:54:36.825Z,35.33
2018-09-05T14:57:06.977Z,35.52
2018-09-05T14:59:37.103Z,37.18
2018-09-05T15:02:07.287Z,36.95
2018-09-05T15:04:37.566Z,36.56
2018-09-05T15:07:08.351Z,36.33
2018-09-05T15:09:41.536Z,35.86
2018-09-05T15:12:11.697Z,35.61
2018-09-05T15:14:41.796Z,36.96
2018-09-05T15:17:11.971Z,38.27
2018-09-05T15:19:42.137Z,38.22
2018-09-05T15:22:12.304Z,38.33
2018-09-05T15:24:42.463Z,38.78
2018-09-05T15:27:12.781Z,39.33
2018-09-05T15:29:42.898Z,40.60
2018-09-05T15:32:13.102Z,39.99
2018-09-05T15:34:43.225Z,39.46
2018-09-05T15:37:13.430Z,39.24
2018-09-05T15:39:43.520Z,39.89
2018-09-05T15:42:13.650Z,40.15
2018-09-05T15:44:43.722Z,40.48
2018-09-05T15:47:13.878Z,41.23
2018-09-05T15:49:44.266Z,40.17
2018-09-05T15:52:14.509Z,40.22
2018-09-05T15:54:44.620Z,39.88
2018-09-05T15:57:14.773Z,39.88
2018-09-05T15:59:44.870Z,40.49
2018-09-05T16:02:14.984Z,40.52
2018-09-05T16:04:45.135Z,40.25
2018-09-05T16:07:15.491Z,40.75
2018-09-05T16:09:45.533Z,40.60
2018-09-05T16:12:16.046Z,40.42
2018-09-05T16:14:46.133Z,39.81
2018-09-05T16:17:16.209Z,40.37
2018-09-05T16:19:46.253Z,40.17
2018-09-05T16:22:16.425Z,40.49
2018-09-05T16:24:46.534Z,39.64
2018-09-05T16:27:16.639Z,40.57
2018-09-05T16:29:46.735Z,41.23
2018-09-05T16:32:16.882Z,41.78
2018-09-05T16:34:46.992Z,41.69
2018-09-05T16:37:17.300Z,42.75
2018-09-05T16:39:47.537Z,42.48
2018-09-05T16:42:17.563Z,42.50
2018-09-05T16:44:47.693Z,42.83
2018-09-05T16:47:18.096Z,42.97
2018-09-05T16:49:48.175Z,42.32
2018-09-05T16:52:18.319Z,42.75
2018-09-05T16:54:48.512Z,42.56
2018-09-05T16:57:18.767Z,42.40
2018-09-05T16:59:48.852Z,42.42
2018-09-05T17:02:18.933Z,42.63
2018-09-05T17:04:49.012Z,44.20
2018-09-05T17:07:19.138Z,42.94
2018-09-05T17:09:49.247Z,42.50
2018-09-05T17:12:19.407Z,42.79
2018-09-05T17:14:49.501Z,42.13
2018-09-05T17:17:19.637Z,44.27
2018-09-05T17:19:49.773Z,44.05
2018-09-05T17:22:19.862Z,44.31
2018-09-05T17:24:50.013Z,45.25
2018-09-05T17:27:20.203Z,44.99
2018-09-05T17:29:50.328Z,46.01
2018-09-05T17:32:20.428Z,47.01
2018-09-05T17:34:50.569Z,46.04
2018-09-05T17:37:20.700Z,46.99
2018-09-05T17:39:50.781Z,47.48
2018-09-05T17:42:20.872Z,48.75
2018-09-05T17:44:50.965Z,48.51
2018-09-05T17:47:21.117Z,49.16
2018-09-05T17:49:51.245Z,48.92
2018-09-05T17:52:21.423Z,49.33
2018-09-05T17:54:51.485Z,49.83
2018-09-05T17:57:21.671Z,50.82
2018-09-05T17:59:51.770Z,50.71
2018-09-05T18:02:21.945Z,50.86
2018-09-05T18:04:52.249Z,49.99
2018-09-05T18:07:22.483Z,49.10
2018-09-05T18:09:52.566Z,49.04
2018-09-05T18:12:22.731Z,48.28
2018-09-05T18:14:52.903Z,48.66
2018-09-05T18:17:23.094Z,47.51
2018-09-05T18:19:53.358Z,47.61
2018-09-05T18:22:23.454Z,46.98
2018-09-05T18:24:54.060Z,47.40
2018-09-05T18:27:24.535Z,46.80
2018-09-05T18:29:54.679Z,48.05
2018-09-05T18:32:24.752Z,49.02
2018-09-05T18:34:55.105Z,47.82
2018-09-05T18:37:25.257Z,47.72
2018-09-05T18:39:55.335Z,47.83
2018-09-05T18:42:25.436Z,47.69
2018-09-05T18:44:55.548Z,47.63
2018-09-05T18:47:25.770Z,47.19
2018-09-05T18:49:55.834Z,47.82
2018-09-05T18:52:25.943Z,47.22
2018-09-05T18:54:56.134Z,47.37
2018-09-05T18:57:26.281Z,48.05
2018-09-05T18:59:56.334Z,48.56
2018-09-05T19:02:29.508Z,47.36
2018-09-05T19:04:59.643Z,47.89
2018-09-05T19:07:29.801Z,47.12
2018-09-05T19:09:59.958Z,47.58
2018-09-05T19:12:30.190Z,46.46
2018-09-05T19:15:00.398Z,46.38
2018-09-05T19:17:30.599Z,46.57
2018-09-05T19:20:00.811Z,47.03
2018-09-05T19:22:31.057Z,47.29
2018-09-05T19:25:01.237Z,46.78
2018-09-05T19:27:32.030Z,46.58
2018-09-05T19:30:02.224Z,46.53
2018-09-05T19:32:32.387Z,46.82
2018-09-05T19:35:02.596Z,47.22
2018-09-05T19:37:32.885Z,47.26
2018-09-05T19:40:03.023Z,47.34
2018-09-05T19:42:33.305Z,47.86
2018-09-05T19:45:03.444Z,48.31
2018-09-05T19:47:33.637Z,48.03
2018-09-05T19:50:03.909Z,48.17
2018-09-05T19:52:34.221Z,48.52
2018-09-05T19:55:04.418Z,49.19
2018-09-05T19:57:34.656Z,48.65
2018-09-05T20:00:04.964Z,49.19
2018-09-05T20:02:35.239Z,49.32
2018-09-05T20:05:05.520Z,49.56
2018-09-05T20:07:35.780Z,50.15
2018-09-05T20:10:06.038Z,50.60
2018-09-05T20:12:36.277Z,50.42
2018-09-05T20:15:06.492Z,50.75
2018-09-05T20:17:36.677Z,51.59
2018-09-05T20:20:07.238Z,51.76
2018-09-05T20:22:37.406Z,51.47
2018-09-05T20:25:07.708Z,51.21
2018-09-05T20:27:37.982Z,51.21
2018-09-05T20:30:08.328Z,51.30
2018-09-05T20:32:38.546Z,52.18
2018-09-05T20:35:08.819Z,51.63
2018-09-05T20:37:38.984Z,51.99
2018-09-05T20:40:09.248Z,51.75
2018-09-05T20:42:39.373Z,52.25
2018-09-05T20:45:09.531Z,52.99
2018-09-05T20:47:39.592Z,53.18
2018-09-05T20:50:09.740Z,53.08
2018-09-05T20:52:39.968Z,53.42
2018-09-05T20:55:09.603Z,53.78
2018-09-05T20:57:39.783Z,54.45
2018-09-05T21:00:09.898Z,54.05
2018-09-05T21:02:40.216Z,54.07
2018-09-05T21:05:10.448Z,54.77
2018-09-05T21:07:40.484Z,54.88
2018-09-05T21:10:11.496Z,55.50
2018-09-05T21:12:41.708Z,55.68
2018-09-05T21:15:11.840Z,55.67
2018-09-05T21:17:41.973Z,55.85
2018-09-05T21:20:12.087Z,55.45
2018-09-05T21:22:42.241Z,55.71
2018-09-05T21:25:12.361Z,55.00
2018-09-05T21:27:42.458Z,54.74
2018-09-05T21:30:12.659Z,55.03
2018-09-05T21:32:42.747Z,55.05
2018-09-05T21:35:12.830Z,54.62
2018-09-05T21:37:42.975Z,55.04
2018-09-05T21:40:13.074Z,54.67
2018-09-05T21:42:43.193Z,54.50
2018-09-05T21:45:13.333Z,55.13
2018-09-05T21:47:43.441Z,55.50
2018-09-05T21:50:13.521Z,55.73
2018-09-05T21:52:43.632Z,56.03
2018-09-05T21:55:13.753Z,55.81
2018-09-05T21:57:43.982Z,56.70
2018-09-05T22:00:14.743Z,56.46
2018-09-05T22:02:44.969Z,56.56
2018-09-05T22:05:15.264Z,56.97
2018-09-05T22:07:45.358Z,57.00
2018-09-05T22:10:15.440Z,57.16
2018-09-05T22:12:45.631Z,57.21
2018-09-05T22:15:15.793Z,57.44
2018-09-05T22:17:45.846Z,57.58
2018-09-05T22:20:15.962Z,57.58
2018-09-05T22:22:46.094Z,57.47
2018-09-05T22:25:16.981Z,57.65
2018-09-05T22:27:47.101Z,57.75
2018-09-05T22:30:17.249Z,57.80
2018-09-05T22:32:47.383Z,58.04
2018-09-05T22:35:17.523Z,58.99
2018-09-05T22:37:47.602Z,59.63
2018-09-05T22:40:17.640Z,59.86
2018-09-05T22:43:04.268Z,60.96
2018-09-05T22:45:51.148Z,62.30
2018-09-05T22:48:43.069Z,63.27
2018-09-05T22:54:08.568Z,64.56
2018-09-05T22:57:01.768Z,63.17
2018-09-05T23:00:45.556Z,62.25
2018-09-05T23:04:06.785Z,62.34
2018-09-05T23:08:54.951Z,62.99
2018-09-05T23:12:08.817Z,63.88
2018-09-05T23:15:01.324Z,63.63
2018-09-05T23:18:19.738Z,64.14
2018-09-05T23:21:27.266Z,64.00
2018-09-05T23:24:03.579Z,65.00
2018-09-05T23:26:33.745Z,64.13
2018-09-05T23:29:03.892Z,63.79
2018-09-05T23:31:34.005Z,63.32
2018-09-05T23:34:04.081Z,63.55
2018-09-05T23:36:34.208Z,63.81
2018-09-05T23:39:05.037Z,64.28
2018-09-05T23:41:35.179Z,65.58
2018-09-05T23:44:05.339Z,64.16
2018-09-05T23:46:35.435Z,63.82
2018-09-05T23:49:05.542Z,65.41
2018-09-05T23:51:35.631Z,65.94
2018-09-05T23:54:05.662Z,68.08
2018-09-05T23:56:35.864Z,67.44
2018-09-05T23:59:06.573Z,66.35
